Time;durP1;ratioP1;P1;durP2;ratioP2;P2;SDS_P1;SDS_P2;PMS_P1;PMS_P2;Temp;Humidity;BMP_temperature;BMP_pressure;BME280_temperature;BME280_humidity;BME280_pressure;Samples;Min_cycle;Max_cycle;Signal;HPM_P1;HPM_P2
2023/07/21 00:01:17;;;;;;;11.20;3.10;;;;;;;;;;5063195;28;20040;-59
2023/07/21 00:03:48;;;;;;;6.55;3.00;;;;;;;;;;5068989;28;20068;-61
2023/07/21 00:06:19;;;;;;;7.38;3.22;;;;;;;;;;5067041;28;20051;-60
2023/07/21 00:08:46;;;;;;;8.65;3.47;;;;;;;;;;5054998;28;20052;-60
2023/07/21 00:11:14;;;;;;;8.48;3.45;;;;;;;;;;5076320;28;20140;-58
2023/07/21 00:13:42;;;;;;;8.27;3.23;;;;;;;;;;5063753;28;20066;-60
2023/07/21 00:16:10;;;;;;;8.82;3.67;;;;;;;;;;5065981;28;20486;-60
2023/07/21 00:18:39;;;;;;;8.25;3.33;;;;;;;;;;5056387;28;20077;-60
2023/07/21 00:21:09;;;;;;;7.40;3.42;;;;;;;;;;5066930;28;20428;-61
2023/07/21 00:23:37;;;;;;;7.32;2.97;;;;;;;;;;5043660;28;20044;-60
2023/07/21 00:26:04;;;;;;;8.83;3.60;;;;;;;;;;5050655;28;20051;-60
2023/07/21 00:28:33;;;;;;;8.27;3.83;;;;;;;;;;5033041;28;20136;-59
2023/07/21 00:31:00;;;;;;;7.07;3.20;;;;;;;;;;5063353;28;20052;-60
2023/07/21 00:33:28;;;;;;;7.90;3.55;;;;;;;;;;5061100;28;20044;-60
2023/07/21 00:35:58;;;;;;;6.80;2.80;;;;;;;;;;5062439;28;20060;-61
2023/07/21 00:38:27;;;;;;;7.27;2.97;;;;;;;;;;5048064;28;20576;-61
2023/07/21 00:40:55;;;;;;;7.05;3.10;;;;;;;;;;5059969;28;20051;-61
2023/07/21 00:43:25;;;;;;;6.38;2.65;;;;;;;;;;5057664;28;20607;-61
2023/07/21 00:45:53;;;;;;;6.80;2.92;;;;;;;;;;5065745;28;20051;-61
2023/07/21 00:48:21;;;;;;;7.60;3.25;;;;;;;;;;5050143;28;20485;-61
2023/07/21 00:50:49;;;;;;;8.93;3.27;;;;;;;;;;5069310;28;20507;-60
2023/07/21 00:53:17;;;;;;;7.25;3.13;;;;;;;;;;5054713;28;20229;-60
2023/07/21 00:55:47;;;;;;;6.63;2.55;;;;;;;;;;5064971;28;20487;-60
2023/07/21 00:58:15;;;;;;;7.63;3.00;;;;;;;;;;5023999;28;20051;-60
2023/07/21 01:00:43;;;;;;;7.90;3.30;;;;;;;;;;5069428;28;20515;-60
2023/07/21 01:03:12;;;;;;;7.83;3.23;;;;;;;;;;5053579;28;20371;-60
2023/07/21 01:05:41;;;;;;;8.10;3.10;;;;;;;;;;5037846;28;20138;-62
2023/07/21 01:08:09;;;;;;;8.77;3.88;;;;;;;;;;5058410;28;20047;-60
2023/07/21 01:10:38;;;;;;;8.90;3.72;;;;;;;;;;5067081;28;20048;-60
2023/07/21 01:13:09;;;;;;;9.82;3.60;;;;;;;;;;5064883;28;20063;-60
2023/07/21 01:15:43;;;;;;;8.00;3.90;;;;;;;;;;5054670;28;20450;-60
2023/07/21 01:18:12;;;;;;;8.82;3.40;;;;;;;;;;5060185;28;20109;-60
2023/07/21 01:20:42;;;;;;;10.38;4.05;;;;;;;;;;5061508;28;20406;-59
2023/07/21 01:23:12;;;;;;;9.48;3.70;;;;;;;;;;5065316;28;20047;-60
2023/07/21 01:25:42;;;;;;;7.50;3.42;;;;;;;;;;5052667;28;20067;-61
2023/07/21 01:28:12;;;;;;;8.20;3.27;;;;;;;;;;5064916;28;20048;-60
2023/07/21 01:30:40;;;;;;;10.70;3.92;;;;;;;;;;5047487;28;20133;-60
2023/07/21 01:33:08;;;;;;;9.43;3.90;;;;;;;;;;5064300;28;20142;-61
2023/07/21 01:35:37;;;;;;;7.47;3.60;;;;;;;;;;5057465;28;20048;-60
2023/07/21 01:38:07;;;;;;;8.15;3.72;;;;;;;;;;5054695;28;20072;-61
2023/07/21 01:40:35;;;;;;;8.23;4.30;;;;;;;;;;5066331;28;20050;-60
2023/07/21 01:43:05;;;;;;;7.90;3.78;;;;;;;;;;5023865;28;20067;-60
2023/07/21 01:45:33;;;;;;;8.82;3.92;;;;;;;;;;5053492;28;20044;-60
2023/07/21 01:48:00;;;;;;;8.95;4.13;;;;;;;;;;5043137;28;20518;-62
2023/07/21 01:50:29;;;;;;;8.38;3.42;;;;;;;;;;5070285;28;20692;-60
2023/07/21 01:53:00;;;;;;;9.77;3.60;;;;;;;;;;5009789;28;1275020;-60
2023/07/21 01:55:32;;;;;;;8.77;3.80;;;;;;;;;;5071933;28;20289;-61
2023/07/21 01:58:03;;;;;;;8.23;3.85;;;;;;;;;;5059619;28;20048;-60
2023/07/21 02:00:34;;;;;;;8.90;3.65;;;;;;;;;;5066059;28;20054;-60
2023/07/21 02:03:17;;;;;;;8.93;4.38;;;;;;;;;;5067999;28;20063;-60
2023/07/21 02:05:46;;;;;;;12.13;3.83;;;;;;;;;;5059094;28;20060;-61
2023/07/21 02:08:14;;;;;;;10.80;3.57;;;;;;;;;;5068620;28;20131;-59
2023/07/21 02:10:42;;;;;;;7.80;3.20;;;;;;;;;;5056042;28;20052;-60
2023/07/21 02:13:14;;;;;;;7.45;3.50;;;;;;;;;;5068809;28;20040;-61
2023/07/21 02:15:44;;;;;;;9.32;3.25;;;;;;;;;;5045936;28;20119;-60
2023/07/21 02:18:11;;;;;;;9.25;3.58;;;;;;;;;;5051504;28;20840;-61
2023/07/21 02:20:39;;;;;;;8.70;3.43;;;;;;;;;;5024009;28;20052;-60
2023/07/21 02:23:07;;;;;;;7.15;3.25;;;;;;;;;;5060748;28;20056;-60
2023/07/21 02:25:34;;;;;;;9.55;4.50;;;;;;;;;;5053462;28;20434;-55
2023/07/21 02:28:02;;;;;;;8.35;3.88;;;;;;;;;;5062959;28;20048;-61
2023/07/21 02:30:30;;;;;;;9.15;3.42;;;;;;;;;;5064746;28;20048;-60
2023/07/21 02:32:59;;;;;;;10.77;4.60;;;;;;;;;;5067783;28;20067;-61
2023/07/21 02:35:28;;;;;;;9.48;4.03;;;;;;;;;;5062040;28;20040;-60
2023/07/21 02:37:58;;;;;;;9.35;3.78;;;;;;;;;;5063708;28;20052;-60
2023/07/21 02:40:26;;;;;;;8.32;3.90;;;;;;;;;;5056336;28;20054;-60
2023/07/21 02:42:54;;;;;;;8.57;3.83;;;;;;;;;;5063234;28;20059;-60
2023/07/21 02:45:22;;;;;;;9.03;4.23;;;;;;;;;;5056445;28;20052;-60
2023/07/21 02:47:49;;;;;;;11.20;5.00;;;;;;;;;;5042034;28;21863;-61
2023/07/21 02:50:18;;;;;;;10.13;4.20;;;;;;;;;;5054221;28;20041;-60
2023/07/21 02:52:46;;;;;;;10.18;4.57;;;;;;;;;;5056942;28;20040;-61
2023/07/21 02:55:14;;;;;;;12.10;4.18;;;;;;;;;;5058166;28;20051;-61
2023/07/21 02:57:42;;;;;;;10.10;4.43;;;;;;;;;;5040366;28;20055;-61
2023/07/21 03:00:12;;;;;;;10.43;4.35;;;;;;;;;;5064258;28;20685;-60
2023/07/21 03:02:41;;;;;;;9.88;4.40;;;;;;;;;;5059993;28;20056;-60
2023/07/21 03:05:09;;;;;;;11.27;4.88;;;;;;;;;;5061796;28;20047;-62
2023/07/21 03:07:39;;;;;;;10.48;4.57;;;;;;;;;;5063321;28;20499;-61
2023/07/21 03:10:09;;;;;;;9.80;4.30;;;;;;;;;;5047782;28;20044;-61
2023/07/21 03:12:37;;;;;;;10.05;4.00;;;;;;;;;;5049433;28;20044;-61
2023/07/21 03:15:05;;;;;;;10.93;4.15;;;;;;;;;;5040684;28;21985;-61
2023/07/21 03:17:36;;;;;;;9.68;4.28;;;;;;;;;;5049021;28;20054;-61
2023/07/21 03:20:10;;;;;;;12.07;4.47;;;;;;;;;;5060235;28;20244;-61
2023/07/21 03:22:40;;;;;;;10.10;4.67;;;;;;;;;;5049317;28;20419;-61
2023/07/21 03:25:08;;;;;;;10.60;4.40;;;;;;;;;;5044574;28;20644;-61
2023/07/21 03:27:38;;;;;;;10.45;4.45;;;;;;;;;;5060757;28;20070;-61
2023/07/21 03:30:06;;;;;;;9.05;4.68;;;;;;;;;;5062309;28;20119;-61
2023/07/21 03:32:34;;;;;;;10.75;4.68;;;;;;;;;;5066610;28;20043;-61
2023/07/21 03:35:05;;;;;;;11.17;4.47;;;;;;;;;;5011745;28;20045;-61
2023/07/21 03:37:34;;;;;;;10.45;4.82;;;;;;;;;;5062014;28;22292;-61
2023/07/21 03:40:06;;;;;;;11.30;4.70;;;;;;;;;;5055958;28;20071;-61
2023/07/21 03:42:34;;;;;;;10.65;4.70;;;;;;;;;;5065873;28;20056;-61
2023/07/21 03:45:04;;;;;;;9.93;4.38;;;;;;;;;;5068066;28;20075;-61
2023/07/21 03:47:32;;;;;;;12.63;5.20;;;;;;;;;;5051163;28;20051;-60
2023/07/21 03:50:04;;;;;;;11.45;4.60;;;;;;;;;;5069024;28;20044;-61
2023/07/21 03:52:31;;;;;;;12.55;4.63;;;;;;;;;;5056613;28;20048;-61
2023/07/21 03:54:59;;;;;;;10.50;4.55;;;;;;;;;;5068408;28;20327;-61
2023/07/21 03:57:29;;;;;;;11.10;4.70;;;;;;;;;;5068237;28;20055;-61
2023/07/21 03:59:56;;;;;;;12.17;4.37;;;;;;;;;;5059230;28;20071;-60
2023/07/21 04:02:24;;;;;;;11.50;5.00;;;;;;;;;;5059648;28;20478;-61
2023/07/21 04:04:53;;;;;;;10.68;4.28;;;;;;;;;;5059766;28;20520;-61
2023/07/21 04:07:21;;;;;;;10.35;4.40;;;;;;;;;;5056322;28;20141;-61
2023/07/21 04:09:49;;;;;;;11.38;4.32;;;;;;;;;;5048642;28;20040;-61
2023/07/21 04:12:17;;;;;;;10.57;4.73;;;;;;;;;;5068644;28;20045;-61
2023/07/21 04:14:46;;;;;;;10.02;4.30;;;;;;;;;;5057369;28;20142;-61
2023/07/21 04:17:15;;;;;;;9.65;4.57;;;;;;;;;;5068165;28;20055;-61
2023/07/21 04:19:43;;;;;;;10.32;4.43;;;;;;;;;;5064357;28;20071;-61
2023/07/21 04:22:11;;;;;;;10.13;4.20;;;;;;;;;;5064219;28;20056;-61
2023/07/21 04:24:39;;;;;;;10.30;3.97;;;;;;;;;;5075058;28;21332;-61
2023/07/21 04:27:08;;;;;;;10.70;4.03;;;;;;;;;;5059301;28;20062;-62
2023/07/21 04:29:36;;;;;;;11.23;4.53;;;;;;;;;;5075281;28;20044;-61
2023/07/21 04:32:05;;;;;;;11.55;4.30;;;;;;;;;;5050420;28;20059;-61
2023/07/21 04:34:33;;;;;;;11.20;4.18;;;;;;;;;;5071348;28;20127;-61
2023/07/21 04:37:02;;;;;;;10.87;3.93;;;;;;;;;;5061812;28;21621;-61
2023/07/21 04:39:29;;;;;;;12.10;4.10;;;;;;;;;;5070686;28;20044;-61
2023/07/21 04:41:57;;;;;;;11.25;4.22;;;;;;;;;;5057511;28;20059;-60
2023/07/21 04:44:25;;;;;;;12.50;4.53;;;;;;;;;;5060220;28;20062;-61
2023/07/21 04:46:53;;;;;;;12.32;4.88;;;;;;;;;;5058101;28;20716;-61
2023/07/21 04:49:22;;;;;;;12.27;4.50;;;;;;;;;;5066212;28;20101;-61
2023/07/21 04:51:50;;;;;;;13.20;4.93;;;;;;;;;;5055440;28;20055;-61
2023/07/21 04:54:18;;;;;;;11.25;5.32;;;;;;;;;;5037656;28;20413;-61
2023/07/21 04:56:45;;;;;;;15.32;5.18;;;;;;;;;;5060855;28;20044;-61
2023/07/21 04:59:13;;;;;;;11.45;4.88;;;;;;;;;;5060820;28;20057;-61
2023/07/21 05:01:42;;;;;;;13.13;5.67;;;;;;;;;;5060850;28;20071;-61
2023/07/21 05:04:10;;;;;;;13.82;5.88;;;;;;;;;;5054221;28;20051;-61
2023/07/21 05:06:39;;;;;;;12.75;4.63;;;;;;;;;;5062424;28;20044;-61
2023/07/21 05:09:07;;;;;;;13.27;5.63;;;;;;;;;;5062547;28;20048;-61
2023/07/21 05:11:35;;;;;;;12.75;5.13;;;;;;;;;;5062480;28;20059;-60
2023/07/21 05:14:03;;;;;;;13.30;4.70;;;;;;;;;;5062266;28;20058;-61
2023/07/21 05:16:31;;;;;;;14.05;5.57;;;;;;;;;;5064121;28;21494;-61
2023/07/21 05:19:00;;;;;;;13.48;5.18;;;;;;;;;;5056569;28;20051;-61
2023/07/21 05:21:27;;;;;;;13.52;5.15;;;;;;;;;;5068277;28;20394;-60
2023/07/21 05:23:57;;;;;;;14.90;5.32;;;;;;;;;;5062696;28;20134;-61
2023/07/21 05:26:24;;;;;;;11.53;5.17;;;;;;;;;;5060921;28;20039;-61
2023/07/21 05:28:54;;;;;;;12.20;4.85;;;;;;;;;;5060995;28;20973;-61
2023/07/21 05:31:22;;;;;;;14.07;5.47;;;;;;;;;;5041025;28;20044;-61
2023/07/21 05:33:50;;;;;;;13.02;5.03;;;;;;;;;;5064552;28;20048;-61
2023/07/21 05:36:18;;;;;;;13.82;5.65;;;;;;;;;;5062410;28;20561;-61
2023/07/21 05:38:47;;;;;;;11.63;4.83;;;;;;;;;;5066944;28;20494;-61
2023/07/21 05:41:16;;;;;;;11.30;5.00;;;;;;;;;;5059809;28;20533;-59
2023/07/21 05:43:44;;;;;;;12.00;4.93;;;;;;;;;;5057055;28;20040;-61
2023/07/21 05:46:12;;;;;;;12.60;4.82;;;;;;;;;;5068506;28;20051;-61
2023/07/21 05:48:41;;;;;;;12.00;4.90;;;;;;;;;;5058768;28;20927;-61
2023/07/21 05:51:12;;;;;;;12.17;5.03;;;;;;;;;;5054718;28;20121;-61
2023/07/21 05:53:41;;;;;;;12.73;5.22;;;;;;;;;;5055478;28;20048;-61
2023/07/21 05:56:11;;;;;;;12.50;5.00;;;;;;;;;;5059407;28;20053;-61
2023/07/21 05:58:41;;;;;;;13.32;5.57;;;;;;;;;;5059932;28;20043;-61
2023/07/21 06:01:10;;;;;;;11.80;5.30;;;;;;;;;;5064127;28;20052;-61
2023/07/21 06:03:38;;;;;;;11.37;4.80;;;;;;;;;;5050651;28;20052;-61
2023/07/21 06:06:06;;;;;;;12.48;4.93;;;;;;;;;;5057545;28;20040;-62
2023/07/21 06:08:34;;;;;;;10.30;4.63;;;;;;;;;;5057582;28;20052;-61
2023/07/21 06:11:03;;;;;;;10.93;5.10;;;;;;;;;;5056085;28;20129;-61
2023/07/21 06:13:30;;;;;;;12.15;5.03;;;;;;;;;;5050376;28;20048;-59
2023/07/21 06:16:00;;;;;;;12.43;5.27;;;;;;;;;;5063918;28;20414;-61
2023/07/21 06:18:28;;;;;;;13.35;5.18;;;;;;;;;;5051189;28;20055;-62
2023/07/21 06:20:56;;;;;;;12.27;5.18;;;;;;;;;;5064582;28;20048;-61
2023/07/21 06:23:23;;;;;;;13.30;5.30;;;;;;;;;;5050124;28;20061;-61
2023/07/21 06:25:51;;;;;;;13.00;5.32;;;;;;;;;;5060586;28;20060;-61
2023/07/21 06:28:19;;;;;;;12.13;5.50;;;;;;;;;;5062348;28;20266;-61
2023/07/21 06:30:47;;;;;;;15.15;5.60;;;;;;;;;;5059672;28;20044;-61
2023/07/21 06:33:17;;;;;;;11.98;5.15;;;;;;;;;;5061116;28;20063;-62
2023/07/21 06:35:46;;;;;;;12.50;5.43;;;;;;;;;;5061792;28;20040;-61
2023/07/21 06:38:14;;;;;;;11.32;5.03;;;;;;;;;;5059852;28;20048;-61
2023/07/21 06:40:41;;;;;;;13.10;5.67;;;;;;;;;;5043633;28;20040;-62
2023/07/21 06:43:09;;;;;;;14.20;5.93;;;;;;;;;;5054932;28;20044;-62
2023/07/21 06:45:39;;;;;;;13.98;5.43;;;;;;;;;;5050188;28;20036;-62
2023/07/21 06:48:07;;;;;;;13.43;5.68;;;;;;;;;;5058566;28;20097;-62
2023/07/21 06:50:39;;;;;;;13.88;5.70;;;;;;;;;;5060071;28;20371;-62
2023/07/21 06:53:06;;;;;;;12.30;5.23;;;;;;;;;;5058759;28;20063;-62
2023/07/21 06:55:34;;;;;;;11.68;5.25;;;;;;;;;;5032272;28;20463;-57
2023/07/21 06:58:02;;;;;;;13.20;5.35;;;;;;;;;;5057740;28;20056;-62
2023/07/21 07:00:33;;;;;;;15.70;5.82;;;;;;;;;;5061376;28;20044;-62
2023/07/21 07:03:01;;;;;;;14.43;5.63;;;;;;;;;;5061540;28;20052;-61
2023/07/21 07:05:28;;;;;;;15.37;5.90;;;;;;;;;;5054390;28;20036;-62
2023/07/21 07:07:58;;;;;;;13.68;6.15;;;;;;;;;;5063091;28;20052;-61
2023/07/21 07:10:25;;;;;;;13.70;5.88;;;;;;;;;;5056763;28;20048;-60
2023/07/21 07:12:53;;;;;;;14.70;6.15;;;;;;;;;;5068252;28;20059;-63
2023/07/21 07:15:24;;;;;;;14.38;6.13;;;;;;;;;;5041438;28;20499;-60
2023/07/21 07:17:52;;;;;;;14.60;6.03;;;;;;;;;;5059775;28;20090;-61
2023/07/21 07:20:20;;;;;;;13.15;5.70;;;;;;;;;;5061093;28;20048;-61
2023/07/21 07:22:48;;;;;;;14.57;6.28;;;;;;;;;;5056955;28;20544;-60
2023/07/21 07:25:18;;;;;;;14.05;5.75;;;;;;;;;;5054585;28;20059;-60
2023/07/21 07:27:46;;;;;;;12.57;5.85;;;;;;;;;;5057713;28;20506;-60
2023/07/21 07:30:16;;;;;;;13.77;6.23;;;;;;;;;;5062533;28;20048;-60
2023/07/21 07:32:44;;;;;;;15.18;6.15;;;;;;;;;;5056420;28;20052;-61
2023/07/21 07:35:12;;;;;;;12.20;5.68;;;;;;;;;;5053640;28;20048;-61
2023/07/21 07:37:40;;;;;;;14.82;5.78;;;;;;;;;;5054803;28;20051;-60
2023/07/21 07:40:10;;;;;;;12.23;5.18;;;;;;;;;;5062611;28;20051;-60
2023/07/21 07:42:39;;;;;;;13.10;5.90;;;;;;;;;;5053316;28;20041;-61
2023/07/21 07:45:07;;;;;;;13.75;6.00;;;;;;;;;;5046770;28;20563;-61
2023/07/21 07:47:35;;;;;;;12.00;5.10;;;;;;;;;;5064130;28;20067;-59
2023/07/21 07:50:03;;;;;;;13.77;6.50;;;;;;;;;;5058456;28;20559;-61
2023/07/21 07:52:31;;;;;;;13.68;5.75;;;;;;;;;;5057686;28;20052;-60
2023/07/21 07:54:59;;;;;;;13.47;5.60;;;;;;;;;;5055807;28;20055;-60
2023/07/21 07:57:27;;;;;;;12.35;5.65;;;;;;;;;;5051804;28;20127;-61
2023/07/21 07:59:56;;;;;;;13.02;5.45;;;;;;;;;;5069114;28;20052;-59
2023/07/21 08:02:24;;;;;;;12.88;5.45;;;;;;;;;;5058923;28;20040;-61
2023/07/21 08:04:52;;;;;;;13.25;5.97;;;;;;;;;;5061598;28;20052;-61
2023/07/21 08:07:19;;;;;;;10.93;5.00;;;;;;;;;;5061959;28;20056;-61
2023/07/21 08:09:50;;;;;;;15.13;5.57;;;;;;;;;;5062929;28;20055;-61
2023/07/21 08:12:18;;;;;;;13.20;5.65;;;;;;;;;;5039468;28;20036;-60
2023/07/21 08:14:50;;;;;;;14.05;5.60;;;;;;;;;;5056217;28;20051;-60
2023/07/21 08:17:20;;;;;;;12.88;4.90;;;;;;;;;;5059280;28;20109;-61
2023/07/21 08:19:48;;;;;;;9.77;3.87;;;;;;;;;;5042395;28;20147;-61
2023/07/21 08:22:16;;;;;;;12.73;4.60;;;;;;;;;;5064890;28;20052;-61
2023/07/21 08:24:44;;;;;;;12.52;4.60;;;;;;;;;;5057350;28;20459;-61
2023/07/21 08:27:16;;;;;;;11.98;5.05;;;;;;;;;;5074682;28;20040;-61
2023/07/21 08:29:45;;;;;;;11.75;4.82;;;;;;;;;;5070279;28;20518;-61
2023/07/21 08:32:13;;;;;;;11.73;5.30;;;;;;;;;;5054089;28;20044;-61
2023/07/21 08:34:42;;;;;;;13.57;5.68;;;;;;;;;;5064706;28;20135;-61
2023/07/21 08:37:10;;;;;;;11.90;5.18;;;;;;;;;;5059279;28;20131;-61
2023/07/21 08:39:41;;;;;;;10.45;4.55;;;;;;;;;;5063018;28;20482;-61
2023/07/21 08:42:10;;;;;;;10.67;3.97;;;;;;;;;;4704904;28;10000234;-60
2023/07/21 08:44:38;;;;;;;7.93;2.97;;;;;;;;;;5055022;28;20051;-60
2023/07/21 08:47:06;;;;;;;8.63;3.50;;;;;;;;;;5042895;28;20048;-61
2023/07/21 08:49:34;;;;;;;8.73;3.15;;;;;;;;;;5055290;28;20098;-61
2023/07/21 08:52:04;;;;;;;7.22;2.75;;;;;;;;;;4701522;28;9999780;-61
2023/07/21 08:54:32;;;;;;;8.80;3.00;;;;;;;;;;5029037;28;20421;-60
2023/07/21 08:57:00;;;;;;;10.05;3.67;;;;;;;;;;5045162;28;20055;-61
2023/07/21 08:59:28;;;;;;;9.53;3.07;;;;;;;;;;5041095;28;20056;-61
2023/07/21 09:01:56;;;;;;;7.13;2.92;;;;;;;;;;5044708;28;20052;-61
2023/07/21 09:04:25;;;;;;;6.80;2.65;;;;;;;;;;5034209;28;20048;-61
2023/07/21 09:06:54;;;;;;;5.88;2.08;;;;;;;;;;5037447;28;20571;-61
2023/07/21 09:09:24;;;;;;;7.03;2.70;;;;;;;;;;5051576;28;20487;-61
2023/07/21 09:11:59;;;;;;;8.13;2.60;;;;;;;;;;5037105;28;20454;-61
2023/07/21 09:14:35;;;;;;;7.53;2.63;;;;;;;;;;5046878;28;21319;-61
2023/07/21 09:17:03;;;;;;;7.30;2.78;;;;;;;;;;5031451;28;20040;-61
2023/07/21 09:19:31;;;;;;;6.43;2.35;;;;;;;;;;5042516;28;20052;-61
2023/07/21 09:21:59;;;;;;;8.93;2.90;;;;;;;;;;5046089;28;20062;-61
2023/07/21 09:24:28;;;;;;;7.20;2.70;;;;;;;;;;5030381;28;20516;-61
2023/07/21 09:27:10;;;;;;;5.60;2.33;;;;;;;;;;5051742;28;20067;-61
2023/07/21 09:29:40;;;;;;;6.43;2.17;;;;;;;;;;5044837;28;20131;-61
2023/07/21 09:32:11;;;;;;;8.07;2.40;;;;;;;;;;5040787;28;20123;-61
2023/07/21 09:34:52;;;;;;;7.45;2.47;;;;;;;;;;5037576;28;20048;-61
2023/07/21 09:37:39;;;;;;;8.80;2.30;;;;;;;;;;5054193;28;20165;-61
2023/07/21 09:40:10;;;;;;;6.03;2.08;;;;;;;;;;5030183;28;20048;-62
2023/07/21 09:42:38;;;;;;;5.65;2.03;;;;;;;;;;5047553;28;20048;-62
2023/07/21 09:45:06;;;;;;;5.22;1.92;;;;;;;;;;5032555;28;20058;-62
2023/07/21 09:47:34;;;;;;;6.25;2.38;;;;;;;;;;5054921;28;20587;-62
2023/07/21 09:50:03;;;;;;;6.27;2.50;;;;;;;;;;5037558;28;20079;-61
2023/07/21 09:52:37;;;;;;;7.28;2.00;;;;;;;;;;5020166;28;20586;-62
2023/07/21 09:55:09;;;;;;;6.20;2.10;;;;;;;;;;5044199;28;20060;-61
2023/07/21 09:57:40;;;;;;;5.00;1.85;;;;;;;;;;5033058;28;20056;-64
2023/07/21 10:00:13;;;;;;;5.15;1.92;;;;;;;;;;5036941;28;20052;-61
2023/07/21 10:02:42;;;;;;;7.07;2.20;;;;;;;;;;5030353;28;20056;-61
2023/07/21 10:05:10;;;;;;;5.32;2.03;;;;;;;;;;5048371;28;20076;-60
2023/07/21 10:07:39;;;;;;;5.82;1.80;;;;;;;;;;5039725;28;20048;-61
2023/07/21 10:10:09;;;;;;;5.78;2.00;;;;;;;;;;5046933;28;20056;-60
2023/07/21 10:12:41;;;;;;;5.88;1.98;;;;;;;;;;5038503;28;20304;-60
2023/07/21 10:15:14;;;;;;;5.37;1.80;;;;;;;;;;5031591;28;20796;-60
2023/07/21 10:17:43;;;;;;;4.72;1.50;;;;;;;;;;5029209;28;20371;-60
2023/07/21 10:20:12;;;;;;;4.90;2.00;;;;;;;;;;5036795;28;20410;-60
2023/07/21 10:22:54;;;;;;;5.32;1.73;;;;;;;;;;5055103;28;20048;-60
2023/07/21 10:25:24;;;;;;;5.05;1.92;;;;;;;;;;5041227;28;20079;-60
2023/07/21 10:28:02;;;;;;;7.37;1.90;;;;;;;;;;5059883;28;20502;-60
2023/07/21 10:30:30;;;;;;;5.00;1.88;;;;;;;;;;5062000;28;20051;-60
2023/07/21 10:33:11;;;;;;;5.07;1.75;;;;;;;;;;5059160;28;20063;-60
2023/07/21 10:35:40;;;;;;;6.53;1.77;;;;;;;;;;5058653;28;20044;-60
2023/07/21 10:38:22;;;;;;;5.47;1.80;;;;;;;;;;5054691;28;20047;-60
2023/07/21 10:40:51;;;;;;;6.33;1.70;;;;;;;;;;5058474;28;20054;-60
2023/07/21 10:43:22;;;;;;;4.72;1.70;;;;;;;;;;5058244;28;20056;-60
2023/07/21 10:45:53;;;;;;;5.82;1.60;;;;;;;;;;5067889;28;20049;-60
2023/07/21 10:48:23;;;;;;;5.13;1.85;;;;;;;;;;5049718;28;20123;-60
2023/07/21 10:50:54;;;;;;;5.70;1.63;;;;;;;;;;5060352;28;20494;-60
2023/07/21 10:53:32;;;;;;;5.77;1.63;;;;;;;;;;4691983;28;10001999;-60
2023/07/21 10:56:07;;;;;;;5.40;1.80;;;;;;;;;;5052971;28;20068;-59
2023/07/21 10:58:35;;;;;;;5.75;1.80;;;;;;;;;;5054315;28;20043;-59
2023/07/21 11:01:03;;;;;;;4.60;1.80;;;;;;;;;;5042927;28;20486;-62
2023/07/21 11:03:30;;;;;;;5.15;1.83;;;;;;;;;;5067007;28;20059;-62
2023/07/21 11:05:58;;;;;;;5.80;1.95;;;;;;;;;;5049502;28;20105;-62
2023/07/21 11:08:27;;;;;;;6.30;1.88;;;;;;;;;;5062563;28;20048;-62
2023/07/21 11:10:54;;;;;;;5.25;1.70;;;;;;;;;;5061207;28;20101;-60
2023/07/21 11:13:24;;;;;;;7.43;2.40;;;;;;;;;;5060327;28;20131;-61
2023/07/21 11:15:53;;;;;;;5.80;1.83;;;;;;;;;;5035690;28;20396;-61
2023/07/21 11:18:22;;;;;;;5.47;1.95;;;;;;;;;;5050918;28;20071;-61
2023/07/21 11:20:51;;;;;;;5.38;2.00;;;;;;;;;;5063500;28;20083;-62
2023/07/21 11:23:19;;;;;;;5.22;2.05;;;;;;;;;;5054999;28;20048;-62
2023/07/21 11:26:02;;;;;;;5.20;1.87;;;;;;;;;;5067548;28;20044;-62
2023/07/21 11:28:35;;;;;;;5.53;2.05;;;;;;;;;;5060835;28;20068;-62
2023/07/21 11:31:02;;;;;;;6.18;2.13;;;;;;;;;;5064906;28;20048;-62
2023/07/21 11:33:41;;;;;;;6.20;2.30;;;;;;;;;;5047264;28;21650;-63
2023/07/21 11:36:13;;;;;;;6.10;1.80;;;;;;;;;;5049736;28;20060;-62
2023/07/21 11:38:41;;;;;;;5.37;2.20;;;;;;;;;;5050465;28;20203;-62
2023/07/21 11:41:09;;;;;;;5.60;1.75;;;;;;;;;;5068749;28;20059;-62
2023/07/21 11:43:50;;;;;;;5.28;2.13;;;;;;;;;;5043769;28;20048;-61
2023/07/21 11:46:22;;;;;;;5.35;1.83;;;;;;;;;;5059770;28;20109;-62
2023/07/21 11:48:51;;;;;;;7.40;2.08;;;;;;;;;;5061068;28;20136;-61
2023/07/21 11:51:21;;;;;;;4.83;1.90;;;;;;;;;;5066212;28;20043;-61
2023/07/21 11:53:50;;;;;;;6.05;1.92;;;;;;;;;;5058962;28;20048;-61
2023/07/21 11:56:18;;;;;;;5.30;2.10;;;;;;;;;;5057951;28;20040;-61
2023/07/21 11:58:45;;;;;;;5.85;1.70;;;;;;;;;;5065888;28;20409;-62
2023/07/21 12:01:15;;;;;;;5.05;1.70;;;;;;;;;;5043483;28;20434;-62
2023/07/21 12:03:42;;;;;;;35.93;10.60;;;;;;;;;;5072647;28;20040;-62
2023/07/21 12:06:10;;;;;;;16.67;5.28;;;;;;;;;;5059163;28;20098;-63
2023/07/21 12:08:38;;;;;;;5.18;1.85;;;;;;;;;;5060332;28;20498;-61
2023/07/21 12:11:06;;;;;;;4.75;2.40;;;;;;;;;;5044592;28;20040;-60
2023/07/21 12:13:34;;;;;;;5.75;1.75;;;;;;;;;;5047284;28;20109;-61
2023/07/21 12:16:03;;;;;;;6.03;2.27;;;;;;;;;;5060013;28;20048;-60
2023/07/21 12:18:33;;;;;;;7.60;2.15;;;;;;;;;;5058604;28;20059;-60
2023/07/21 12:21:01;;;;;;;5.15;1.80;;;;;;;;;;5047394;28;20054;-60
2023/07/21 12:23:29;;;;;;;5.38;1.88;;;;;;;;;;5054703;28;20040;-60
2023/07/21 12:25:57;;;;;;;7.45;1.88;;;;;;;;;;5071040;28;20310;-59
2023/07/21 12:28:25;;;;;;;6.13;2.27;;;;;;;;;;5044979;28;20134;-60
2023/07/21 12:30:53;;;;;;;6.72;2.58;;;;;;;;;;5062559;28;20055;-60
2023/07/21 12:33:21;;;;;;;5.72;1.92;;;;;;;;;;5056549;28;20101;-61
2023/07/21 12:35:50;;;;;;;5.93;1.40;;;;;;;;;;5066679;28;20391;-60
2023/07/21 12:38:17;;;;;;;5.20;1.83;;;;;;;;;;5064380;28;21629;-60
2023/07/21 12:40:46;;;;;;;5.20;1.97;;;;;;;;;;5067370;28;20044;-60
2023/07/21 12:43:16;;;;;;;5.00;1.50;;;;;;;;;;5072278;28;20052;-59
2023/07/21 12:45:50;;;;;;;4.30;1.30;;;;;;;;;;4710616;28;9999708;-60
2023/07/21 12:48:21;;;;;;;4.45;1.20;;;;;;;;;;5061433;28;20080;-60
2023/07/21 12:50:52;;;;;;;6.40;1.35;;;;;;;;;;5053683;28;20527;-60
2023/07/21 12:53:20;;;;;;;4.18;1.17;;;;;;;;;;5059205;28;20324;-60
2023/07/21 12:55:52;;;;;;;7.57;2.00;;;;;;;;;;5049793;28;20727;-61
2023/07/21 12:58:19;;;;;;;7.20;1.60;;;;;;;;;;5061571;28;20055;-60
2023/07/21 13:00:47;;;;;;;4.30;1.20;;;;;;;;;;5050400;28;20048;-61
2023/07/21 13:03:15;;;;;;;4.20;1.30;;;;;;;;;;5066863;28;20937;-61
2023/07/21 13:05:46;;;;;;;3.88;0.82;;;;;;;;;;5059036;28;20054;-61
2023/07/21 13:08:25;;;;;;;4.90;1.40;;;;;;;;;;4699484;28;10000321;-61
2023/07/21 13:10:53;;;;;;;5.07;1.52;;;;;;;;;;5057262;28;20056;-61
2023/07/21 13:13:21;;;;;;;4.30;1.50;;;;;;;;;;5055961;28;20722;-61
2023/07/21 13:15:48;;;;;;;6.25;1.20;;;;;;;;;;5058455;28;20098;-61
2023/07/21 13:18:18;;;;;;;6.40;1.53;;;;;;;;;;5056365;28;20052;-61
2023/07/21 13:20:46;;;;;;;5.80;1.40;;;;;;;;;;5048906;28;20040;-62
2023/07/21 13:23:13;;;;;;;4.43;1.15;;;;;;;;;;5070868;28;20376;-62
2023/07/21 13:25:50;;;;;;;4.50;1.33;;;;;;;;;;5055884;28;20048;-62
2023/07/21 13:28:17;;;;;;;4.13;1.10;;;;;;;;;;5060881;28;20127;-61
2023/07/21 13:30:46;;;;;;;3.80;1.27;;;;;;;;;;5054517;28;20453;-62
2023/07/21 13:33:14;;;;;;;4.53;1.05;;;;;;;;;;5060446;28;20062;-62
2023/07/21 13:35:42;;;;;;;3.55;0.85;;;;;;;;;;5060172;28;20276;-62
2023/07/21 13:38:09;;;;;;;5.78;1.20;;;;;;;;;;5068431;28;20052;-62
2023/07/21 13:40:37;;;;;;;5.07;1.10;;;;;;;;;;5055337;28;20051;-62
2023/07/21 13:43:06;;;;;;;3.37;0.83;;;;;;;;;;5064742;28;20048;-62
2023/07/21 13:45:34;;;;;;;3.85;1.00;;;;;;;;;;5049912;28;20048;-62
2023/07/21 13:48:02;;;;;;;4.25;1.30;;;;;;;;;;5061493;28;20513;-62
2023/07/21 13:50:30;;;;;;;6.18;1.15;;;;;;;;;;5037102;28;20043;-62
2023/07/21 13:52:57;;;;;;;4.97;1.10;;;;;;;;;;5047172;28;20049;-62
2023/07/21 13:55:27;;;;;;;5.03;1.27;;;;;;;;;;5043626;28;20057;-62
2023/07/21 13:57:55;;;;;;;6.85;1.63;;;;;;;;;;5061053;28;20544;-61
2023/07/21 14:00:24;;;;;;;5.18;1.23;;;;;;;;;;5055209;28;20075;-62
2023/07/21 14:02:52;;;;;;;5.05;1.90;;;;;;;;;;5055115;28;20143;-62
2023/07/21 14:05:20;;;;;;;5.97;1.65;;;;;;;;;;5046810;28;21172;-62
2023/07/21 14:07:48;;;;;;;4.57;1.30;;;;;;;;;;5057724;28;20372;-62
2023/07/21 14:10:16;;;;;;;4.70;1.30;;;;;;;;;;5064089;28;20040;-62
2023/07/21 14:12:46;;;;;;;4.90;1.38;;;;;;;;;;5052523;28;20048;-62
2023/07/21 14:15:14;;;;;;;4.60;1.50;;;;;;;;;;5065256;28;20064;-62
2023/07/21 14:17:43;;;;;;;4.90;1.20;;;;;;;;;;5051765;28;20048;-62
2023/07/21 14:20:13;;;;;;;4.30;1.40;;;;;;;;;;5058016;28;20131;-61
2023/07/21 14:22:40;;;;;;;6.10;1.60;;;;;;;;;;5051727;28;20696;-61
2023/07/21 14:25:09;;;;;;;4.65;1.63;;;;;;;;;;5059271;28;20048;-62
2023/07/21 14:27:38;;;;;;;3.88;0.98;;;;;;;;;;5062261;28;20063;-61
2023/07/21 14:30:09;;;;;;;4.35;1.10;;;;;;;;;;5055064;28;20063;-62
2023/07/21 14:32:37;;;;;;;4.07;1.23;;;;;;;;;;5065369;28;20049;-62
2023/07/21 14:35:09;;;;;;;6.55;1.40;;;;;;;;;;5057616;28;20198;-62
2023/07/21 14:37:36;;;;;;;6.68;1.58;;;;;;;;;;5058605;28;20128;-62
2023/07/21 14:40:10;;;;;;;6.88;2.05;;;;;;;;;;5060253;28;20054;-62
2023/07/21 14:42:38;;;;;;;4.13;1.33;;;;;;;;;;5039870;28;20048;-61
2023/07/21 14:45:07;;;;;;;4.37;1.17;;;;;;;;;;5048898;28;20491;-62
2023/07/21 14:47:34;;;;;;;5.20;1.30;;;;;;;;;;5038981;28;20032;-62
2023/07/21 14:50:02;;;;;;;5.47;1.42;;;;;;;;;;5034996;28;20066;-62